Thu, 15 Apr 2021 09:28:03 UTC

Information for RPM CharLS-1.0-5.el7.ppc64le.rpm

ID7062696
NameCharLS
Version1.0
Release5.el7
Epoch
Archppc64le
SummaryAn optimized implementation of the JPEG-LS standard
DescriptionAn optimized implementation of the JPEG-LS standard for loss less and near loss less image compression. JPEG-LS is a low-complexity standard that matches JPEG 2000 compression ratios. In terms of speed, CharLS outperforms open source and commercial JPEG LS implementations. JPEG-LS (ISO-14495-1/ITU-T.87) is a standard derived from the Hewlett Packard LOCO algorithm. JPEG LS has low complexity (meaning fast compression) and high compression ratios, similar to JPEG 2000. JPEG-LS is more similar to the old loss less JPEG than to JPEG 2000, but interestingly the two different techniques result in vastly different performance characteristics.
Build Time2015-12-03 11:13:13 GMT
Size60,148
aa40087a8bae7e171de69c76ed35dbc0
LicenseBSD
Buildrootepel7-archbootstrap-4512667-552754
Provides
CharLS = 1.0-5.el7
CharLS(ppc-64) = 1.0-5.el7
libCharLS.so.1()(64bit)
Obsoletes No Obsoletes
Conflicts No Conflicts
Requires
/sbin/ldconfig
/sbin/ldconfig
libc.so.6()(64bit)
libc.so.6(GLIBC_2.17)(64bit)
libgcc_s.so.1()(64bit)
libgcc_s.so.1(GCC_3.0)(64bit)
libm.so.6()(64bit)
libstdc++.so.6()(64bit)
libstdc++.so.6(CXXABI_1.3)(64bit)
libstdc++.so.6(GLIBCXX_3.4)(64bit)
rpmlib(CompressedFileNames) <= 3.0.4-1
rpmlib(FileDigests) <= 4.6.0-1
rpmlib(PayloadFilesHavePrefix) <= 4.0-1
rpmlib(PayloadIsXz) <= 5.2-1
rtld(GNU_HASH)
Recommends No Recommends
Suggests No Suggests
Supplements No Supplements
Enhances No Enhances
Files
1 through 4 of 4
Name ascending sort Size
/usr/lib64/libCharLS.so.116
/usr/lib64/libCharLS.so.1.0332,400
/usr/share/doc/CharLS-1.04,096
/usr/share/doc/CharLS-1.0/License.txt1,500
Component of
Page:
1 through 50 of 244 >>>
Buildroot descending sort Created State
epel7-build-26295066-3143258 2021-03-15 16:30:11 expired
epel7-build-25996838-3062764 2021-02-28 20:44:22 expired
epel7-build-25726784-2991778 2021-02-15 01:46:35 expired
epel7-build-25726734-2991778 2021-02-15 01:45:20 expired
epel7-build-25723322-2987948 2021-02-14 22:40:05 expired
epel7-build-25658040-2976817 2021-02-11 16:43:37 expired
epel7-build-25589293-2958016 2021-02-07 19:41:28 expired
epel7-build-25584452-2958016 2021-02-07 13:48:02 expired
epel7-build-24820938-2672459 2020-12-28 07:30:10 expired
epel7-build-24820904-2672459 2020-12-28 07:28:04 expired
epel7-build-24806475-2669479 2020-12-27 21:31:50 expired
epel7-build-24806392-2669479 2020-12-27 21:29:51 expired
epel7-build-24736350-2660040 2020-12-25 10:02:59 expired
epel7-build-24736347-2660040 2020-12-25 10:02:58 expired
epel7-build-24184988-2456803 2020-11-21 23:16:16 expired
epel7-build-24178028-2454840 2020-11-21 18:20:58 expired
epel7-build-24177947-2454840 2020-11-21 18:16:41 expired
epel7-build-24169316-2454840 2020-11-21 11:46:06 expired
epel7-build-24169128-2454840 2020-11-21 11:33:39 expired
epel7-build-24169074-2454840 2020-11-21 11:30:10 expired
epel7-build-23992405-2409653 2020-11-12 05:35:29 expired
epel7-build-23984486-2406953 2020-11-11 23:19:41 expired
epel7-build-23984302-2406953 2020-11-11 23:12:24 expired
epel7-build-23973738-2404704 2020-11-11 12:31:02 expired
epel7-build-23973576-2404704 2020-11-11 12:19:54 expired
epel7-build-23973550-2404704 2020-11-11 12:16:41 expired
epel7-build-23973325-2404704 2020-11-11 11:37:09 expired
epel7-build-23782360-2348553 2020-11-01 19:19:48 expired
epel7-build-23782242-2348553 2020-11-01 19:14:36 expired
epel7-build-23772891-2347610 2020-11-01 12:12:33 expired
epel7-build-23772743-2347610 2020-11-01 11:55:16 expired
epel7-build-23772681-2347610 2020-11-01 11:51:27 expired
epel7-build-23772489-2347610 2020-11-01 11:41:23 expired
epel7-build-23589159-2299742 2020-10-24 07:04:57 expired
epel7-build-23589051-2299742 2020-10-24 06:58:58 expired
epel7-build-23559941-2294433 2020-10-23 12:49:30 expired
epel7-build-23559663-2294433 2020-10-23 12:18:55 expired
epel7-build-23559558-2294433 2020-10-23 12:06:59 expired
epel7-build-23559381-2294433 2020-10-23 11:56:24 expired
epel7-build-23099129-2167851 2020-09-30 05:16:31 expired
epel7-build-23098685-2167851 2020-09-30 04:57:05 expired
epel7-build-23098580-2167851 2020-09-30 04:52:24 expired
epel7-build-23098510-2167851 2020-09-30 04:50:11 expired
epel7-build-23098235-2167851 2020-09-30 04:20:04 expired
epel7-build-23098072-2167842 2020-09-30 04:13:52 expired
epel7-build-22637403-2035624 2020-09-07 13:28:12 expired
epel7-build-22631529-2035624 2020-09-07 05:13:56 expired
epel7-build-22624269-2033503 2020-09-06 22:54:17 expired
epel7-build-22616054-2033503 2020-09-06 15:19:05 expired
epel7-build-22467431-1997988 2020-08-30 09:56:33 expired